createdAt,value
2022-10-05T00:00:55.710Z,5.88
2022-10-05T00:06:00.862Z,5.60
2022-10-05T00:11:03.878Z,5.45
2022-10-05T00:16:16.122Z,5.55
2022-10-05T00:21:25.375Z,6.28
2022-10-05T00:26:33.223Z,5.53
2022-10-05T00:31:37.259Z,5.63
2022-10-05T00:36:41.893Z,6.18
2022-10-05T00:41:56.987Z,7.05
2022-10-05T00:47:09.672Z,7.50
2022-10-05T00:57:40.100Z,7.00
2022-10-05T01:02:55.477Z,6.47
2022-10-05T01:08:11.620Z,6.95
2022-10-05T01:13:26.453Z,7.38
2022-10-05T01:18:39.166Z,6.60
2022-10-05T01:24:03.591Z,6.50
2022-10-05T01:29:15.893Z,7.13
2022-10-05T01:34:28.849Z,7.07
2022-10-05T01:39:42.309Z,7.10
2022-10-05T01:44:55.890Z,7.50
2022-10-05T01:50:04.710Z,6.35
2022-10-05T01:55:19.644Z,6.93
2022-10-05T02:00:24.267Z,7.45
2022-10-05T02:05:34.015Z,7.28
2022-10-05T02:10:39.694Z,7.32
2022-10-05T02:15:49.637Z,6.65
2022-10-05T02:20:55.024Z,7.43
2022-10-05T02:25:59.350Z,7.72
2022-10-05T02:31:10.237Z,7.05
2022-10-05T02:36:16.578Z,7.78
2022-10-05T02:41:32.615Z,8.05
2022-10-05T02:46:45.229Z,7.68
2022-10-05T02:51:57.363Z,7.40
2022-10-05T02:57:05.898Z,7.38
2022-10-05T03:02:18.461Z,8.13
2022-10-05T03:07:27.638Z,6.93
2022-10-05T03:12:45.686Z,6.95
2022-10-05T03:18:00.965Z,6.57
2022-10-05T03:23:09.255Z,8.52
2022-10-05T03:28:18.376Z,8.07
2022-10-05T03:33:31.713Z,8.60
2022-10-05T03:38:43.559Z,8.55
2022-10-05T03:49:10.601Z,8.20
2022-10-05T03:54:20.923Z,8.07
2022-10-05T03:59:32.371Z,8.63
2022-10-05T04:09:52.174Z,7.57
2022-10-05T04:15:01.545Z,8.32
2022-10-05T04:20:16.354Z,7.97
2022-10-05T04:25:26.033Z,9.00
2022-10-05T04:30:31.749Z,8.77
2022-10-05T04:35:58.450Z,7.90
2022-10-05T04:41:14.193Z,8.30
2022-10-05T04:46:29.826Z,8.82
2022-10-05T04:51:46.570Z,8.25
2022-10-05T04:56:56.768Z,8.82
2022-10-05T05:02:06.753Z,8.00
2022-10-05T05:07:25.185Z,8.25
2022-10-05T05:12:45.022Z,8.38
2022-10-05T05:18:08.687Z,8.52
2022-10-05T05:23:23.753Z,8.40
2022-10-05T05:28:35.181Z,8.13
2022-10-05T05:33:49.837Z,7.75
2022-10-05T05:39:06.045Z,8.38
2022-10-05T05:44:21.276Z,7.50
2022-10-05T05:49:33.252Z,8.05
2022-10-05T05:54:43.356Z,8.05
2022-10-05T05:59:57.532Z,7.40
2022-10-05T06:05:10.836Z,7.30
2022-10-05T06:10:20.297Z,7.25
2022-10-05T06:15:39.496Z,7.10
2022-10-05T06:20:50.413Z,7.82
2022-10-05T06:26:10.908Z,7.35
2022-10-05T06:31:25.166Z,6.60
2022-10-05T06:36:41.764Z,6.72
2022-10-05T06:42:09.298Z,7.68
2022-10-05T06:47:39.047Z,7.55
2022-10-05T06:53:29.148Z,6.65
2022-10-05T06:58:46.629Z,7.45
2022-10-05T07:04:08.143Z,7.10
2022-10-05T07:09:28.313Z,7.53
2022-10-05T07:14:52.951Z,6.65
2022-10-05T07:20:01.019Z,7.55
2022-10-05T07:25:11.518Z,6.75
2022-10-05T07:30:17.014Z,6.13
2022-10-05T07:35:46.322Z,7.13
2022-10-05T07:40:54.100Z,7.32
2022-10-05T07:46:07.648Z,6.75
2022-10-05T07:51:17.230Z,7.82
2022-10-05T07:56:27.470Z,6.75
2022-10-05T08:01:36.286Z,5.78
2022-10-05T08:06:47.325Z,6.13
2022-10-05T08:11:58.069Z,4.30
2022-10-05T08:17:12.312Z,6.05
2022-10-05T08:22:24.535Z,6.78
2022-10-05T08:27:34.675Z,5.63
2022-10-05T08:32:44.315Z,6.72
2022-10-05T08:37:49.053Z,6.45
2022-10-05T08:43:08.253Z,6.15
2022-10-05T08:48:41.755Z,5.70
2022-10-05T08:54:18.721Z,4.88
2022-10-05T08:59:41.646Z,6.47
2022-10-05T09:05:11.589Z,5.85
2022-10-05T09:10:48.261Z,6.32
2022-10-05T09:16:05.527Z,4.53
2022-10-05T09:21:17.159Z,5.65
2022-10-05T09:26:44.017Z,4.60
2022-10-05T09:32:14.238Z,5.78
2022-10-05T09:37:49.732Z,5.38
2022-10-05T09:43:24.199Z,5.40
2022-10-05T09:48:57.542Z,5.07
2022-10-05T09:54:32.637Z,5.68
2022-10-05T10:00:05.024Z,5.70
2022-10-05T10:05:57.827Z,5.63
2022-10-05T10:11:17.404Z,4.40
2022-10-05T10:16:30.691Z,4.38
2022-10-05T10:22:02.832Z,4.40
2022-10-05T10:27:20.933Z,4.43
2022-10-05T10:32:50.814Z,4.55
2022-10-05T10:38:26.471Z,4.30
2022-10-05T10:43:51.262Z,4.95
2022-10-05T10:49:02.353Z,3.95
2022-10-05T10:54:21.018Z,3.78
2022-10-05T10:59:57.061Z,3.70
2022-10-05T11:05:25.568Z,5.03
2022-10-05T11:10:54.682Z,3.80
2022-10-05T11:16:32.093Z,4.18
2022-10-05T11:21:45.657Z,4.30
2022-10-05T11:27:13.495Z,4.63
2022-10-05T11:32:47.364Z,4.00
2022-10-05T11:38:09.459Z,4.45
2022-10-05T11:43:31.416Z,4.47
2022-10-05T11:49:00.373Z,3.83
2022-10-05T11:54:27.653Z,4.20
2022-10-05T11:59:35.859Z,3.60
2022-10-05T12:04:51.178Z,3.50
2022-10-05T12:10:17.841Z,3.15
2022-10-05T12:15:27.100Z,2.97
2022-10-05T12:20:36.981Z,2.50
2022-10-05T12:25:45.802Z,2.40
2022-10-05T12:31:04.212Z,2.80
2022-10-05T12:36:14.645Z,2.15
2022-10-05T12:41:22.946Z,1.98
2022-10-05T12:46:35.996Z,2.05
2022-10-05T12:51:44.105Z,1.42
2022-10-05T12:56:54.361Z,2.15
2022-10-05T13:02:04.706Z,1.88
2022-10-05T13:07:33.491Z,1.92
2022-10-05T13:12:44.715Z,2.25
2022-10-05T13:17:55.829Z,2.28
2022-10-05T13:23:06.821Z,2.00
2022-10-05T13:28:16.613Z,1.83
2022-10-05T13:33:29.526Z,2.03
2022-10-05T13:38:49.455Z,2.17
2022-10-05T13:44:03.289Z,2.28
2022-10-05T13:49:26.510Z,2.17
2022-10-05T13:54:38.924Z,1.30
2022-10-05T13:59:50.929Z,1.88
2022-10-05T14:05:00.323Z,1.50
2022-10-05T14:10:08.306Z,1.55
2022-10-05T14:15:21.794Z,1.50
2022-10-05T14:20:27.000Z,1.77
2022-10-05T14:25:32.328Z,1.92
2022-10-05T14:30:35.163Z,1.90
2022-10-05T14:35:49.999Z,2.10
2022-10-05T14:41:18.381Z,1.75
2022-10-05T14:46:28.551Z,1.70
2022-10-05T14:51:33.580Z,1.38
2022-10-05T14:56:45.868Z,1.42
2022-10-05T15:01:55.944Z,1.42
2022-10-05T15:07:18.222Z,1.20
2022-10-05T15:12:31.719Z,1.67
2022-10-05T15:17:40.110Z,1.80
2022-10-05T15:22:51.023Z,2.05
2022-10-05T15:28:11.438Z,1.77
2022-10-05T15:33:21.912Z,1.40
2022-10-05T15:38:26.503Z,1.60
2022-10-05T15:43:46.961Z,1.70
2022-10-05T15:49:00.591Z,1.60
2022-10-05T15:54:28.507Z,2.20
2022-10-05T15:59:39.677Z,1.15
2022-10-05T16:04:50.630Z,1.48
2022-10-05T16:10:02.220Z,1.48
2022-10-05T16:15:20.236Z,1.17
2022-10-05T16:20:33.108Z,1.30
2022-10-05T16:25:48.064Z,1.40
2022-10-05T16:31:12.702Z,1.42
2022-10-05T16:36:31.836Z,1.58
2022-10-05T16:41:42.875Z,1.20
2022-10-05T16:46:53.690Z,1.45
2022-10-05T16:52:00.277Z,1.38
2022-10-05T16:57:10.801Z,1.33
2022-10-05T17:02:27.721Z,1.45
2022-10-05T17:07:47.818Z,1.70
2022-10-05T17:13:02.462Z,1.30
2022-10-05T17:18:27.227Z,1.30
2022-10-05T17:23:44.573Z,1.40
2022-10-05T17:29:01.212Z,1.33
2022-10-05T17:34:27.792Z,1.40
2022-10-05T17:39:51.120Z,1.20
2022-10-05T17:44:55.682Z,1.75
2022-10-05T17:50:18.372Z,1.50
2022-10-05T18:00:50.164Z,1.75
2022-10-05T18:06:26.300Z,1.83
2022-10-05T18:11:41.242Z,1.77
2022-10-05T18:17:00.857Z,1.77
2022-10-05T18:22:26.278Z,2.10
2022-10-05T18:27:58.321Z,1.67
2022-10-05T18:33:27.185Z,1.93
2022-10-05T18:38:44.400Z,1.80
2022-10-05T18:43:59.154Z,2.22
2022-10-05T18:49:16.172Z,2.03
2022-10-05T18:54:35.713Z,1.90
2022-10-05T18:59:47.343Z,2.45
2022-10-05T19:05:23.629Z,2.50
2022-10-05T19:10:38.477Z,2.67
2022-10-05T19:15:55.043Z,2.42
2022-10-05T19:21:09.103Z,2.38
2022-10-05T19:26:16.250Z,2.40
2022-10-05T19:31:31.504Z,2.40
2022-10-05T19:36:46.125Z,2.47
2022-10-05T19:41:58.829Z,2.67
2022-10-05T19:47:07.029Z,2.30
2022-10-05T19:52:21.020Z,2.22
2022-10-05T19:57:25.092Z,2.15
2022-10-05T20:02:29.281Z,1.90
2022-10-05T20:07:34.299Z,1.73
2022-10-05T20:12:50.521Z,1.50
2022-10-05T20:18:12.409Z,1.73
2022-10-05T20:23:22.971Z,1.70
2022-10-05T20:28:33.003Z,1.63
2022-10-05T20:33:38.957Z,1.13
2022-10-05T20:38:41.705Z,1.40
2022-10-05T20:43:44.378Z,1.50
2022-10-05T20:48:48.452Z,1.90
2022-10-05T20:53:51.126Z,1.90
2022-10-05T20:58:53.758Z,2.13
2022-10-05T21:03:57.753Z,2.10
2022-10-05T21:09:00.547Z,1.60
2022-10-05T21:14:05.733Z,2.25
2022-10-05T21:19:12.238Z,2.10
2022-10-05T21:24:17.252Z,1.80
2022-10-05T21:29:19.917Z,1.80
2022-10-05T21:34:24.255Z,1.95
2022-10-05T21:39:27.289Z,2.13
2022-10-05T21:44:29.957Z,2.58
2022-10-05T21:49:34.549Z,2.03
2022-10-05T21:54:38.373Z,2.00
2022-10-05T21:59:41.504Z,1.95
2022-10-05T22:04:45.515Z,1.80
2022-10-05T22:09:48.677Z,2.10
2022-10-05T22:14:51.405Z,1.83
2022-10-05T22:19:56.789Z,2.08
2022-10-05T22:24:59.618Z,1.77
2022-10-05T22:30:03.691Z,2.38
2022-10-05T22:35:11.516Z,1.60
2022-10-05T22:40:14.605Z,2.03
2022-10-05T22:45:17.505Z,1.52
2022-10-05T22:50:21.728Z,1.60
2022-10-05T22:55:24.952Z,2.38
2022-10-05T23:00:46.488Z,1.90
2022-10-05T23:11:03.413Z,2.60
2022-10-05T23:16:08.198Z,1.67
2022-10-05T23:21:12.852Z,2.28
2022-10-05T23:26:17.033Z,1.52
2022-10-05T23:31:21.937Z,1.30
2022-10-05T23:36:28.012Z,0.75
2022-10-05T23:41:30.743Z,0.47
2022-10-05T23:46:33.545Z,0.50
2022-10-05T23:51:37.689Z,0.80
2022-10-05T23:56:40.608Z,0.40
